Terminal Aerodrome Forecast
Issued by NWS

Home | Current Version | Previous Version | Graphics & Text | Print | Product List | Glossary On
Versions: 1 2 3 4 5 6 7 8 9 10 11 12 13 14 15 16 17 18 19 20
000
FTUS43 KMPX 181100 RRA
TAFAXN
TAF
KAXN 181139Z 1812/1912 17004KT 1/2SM FG OVC002
      TEMPO 1812/1815 3SM BR BKN005
     FM181500 22008KT 6SM -SHRA BKN005 OVC025
      TEMPO 1818/1822 3SM TSRA SCT005CB BKN025
     FM182200 27008KT P6SM -SHRA BKN030
     FM190000 30006KT P6SM SCT040 BKN120=

USA.gov is the U.S. government's official web portal to all federal, state and local government web resources and services.